Hovedside
METAR-TAF:

METAR-TAF

Lufthavner :

Kuopio lufthavn

Kuopio, Finland

breddegrad: 63-01N, lengdegrad: 027-48E, høyde over havet: 98 m

Gjeldene værobservasjon

Denne rapporten ble laget for 27 minutter siden, klokken 14:20 UTC
Vind 11 kt fra Vest, skiftende mellom Vest-sørvest og Nordvest
Temperatur 20°C
Luftfuktighet 37%
Trykk 1012 hPa
Sikt 10 km eller mer
ingen skyer under 1500 m og ingen bygeskyer

METAR: EFKU 241420Z AUTO 28011KT 250V310 CAVOK 20/05 Q1012

Tid: 17:47 (14:47 UTC)

Varsel

Denne rapporten ble laget for 11 minutter siden, klokken 14:36 UTC
Varsel gyldig fra 24. klokken 15 UTC til 25. klokken 15 UTC
Vind 9 kt fra Vest-nordvest
Sikt 10 km eller mer
ingen skyer under 1500 m og ingen bygeskyer

TAF: EFKU 241436Z 2415/2515 30009KT CAVOK

Værobservasjoner og værvarsel for over 4000 flyplasser (METAR- og TAF-rapporter).

Tilgjengelige stasjoner er representert av de røde og gule prikkene på kartet.

Hold musepekeren over prikken for å se navnet på stasjonen.

Klikk så for å se værobservasjoner og -varsler.

For å forandre kartet kan du klikke på den grønne knappen med svart kryss for å zoome inn, på den grønne knappen med strek for å zoome ut, eller på de grønne pilene for å se tilstøtende kart.


METAR-TAF: